sensor_id;sensor_type;location;lat;lon;timestamp;temperature;humidity
14709;DHT22;7445;50.774;4.944;2023-07-22T07:17:24;17.70;50.10
14709;DHT22;7445;50.774;4.944;2023-07-22T07:19:51;17.90;55.60
14709;DHT22;7445;50.774;4.944;2023-07-22T07:22:17;18.10;46.30
14709;DHT22;7445;50.774;4.944;2023-07-22T07:24:42;18.10;42.60
14709;DHT22;7445;50.774;4.944;2023-07-22T07:27:10;18.10;40.90
14709;DHT22;7445;50.774;4.944;2023-07-22T07:29:36;18.20;42.40
14709;DHT22;7445;50.774;4.944;2023-07-22T07:32:08;18.30;29.00
14709;DHT22;7445;50.774;4.944;2023-07-22T07:34:35;18.20;40.20
14709;DHT22;7445;50.774;4.944;2023-07-22T07:37:04;18.20;42.90
14709;DHT22;7445;50.774;4.944;2023-07-22T07:39:32;18.30;42.20
14709;DHT22;7445;50.774;4.944;2023-07-22T07:42:00;18.50;31.70
14709;DHT22;7445;50.774;4.944;2023-07-22T07:44:34;18.70;27.40
14709;DHT22;7445;50.774;4.944;2023-07-22T07:47:00;18.80;22.90
14709;DHT22;7445;50.774;4.944;2023-07-22T07:49:25;18.80;19.90
14709;DHT22;7445;50.774;4.944;2023-07-22T07:51:51;18.80;99.90
14709;DHT22;7445;50.774;4.944;2023-07-22T07:54:16;18.80;99.90
14709;DHT22;7445;50.774;4.944;2023-07-22T07:57:14;18.80;99.90
14709;DHT22;7445;50.774;4.944;2023-07-22T07:59:46;18.70;99.90
14709;DHT22;7445;50.774;4.944;2023-07-22T08:02:12;18.80;99.90
14709;DHT22;7445;50.774;4.944;2023-07-22T08:04:38;19.00;99.90
14709;DHT22;7445;50.774;4.944;2023-07-22T08:07:06;19.30;99.90
14709;DHT22;7445;50.774;4.944;2023-07-22T08:09:37;19.50;99.90
14709;DHT22;7445;50.774;4.944;2023-07-22T08:12:05;19.80;99.90
14709;DHT22;7445;50.774;4.944;2023-07-22T08:17:17;20.30;99.90
14709;DHT22;7445;50.774;4.944;2023-07-22T08:19:44;20.30;1.00
14709;DHT22;7445;50.774;4.944;2023-07-22T08:22:11;20.40;1.00
14709;DHT22;7445;50.774;4.944;2023-07-22T08:25:03;20.40;1.00
14709;DHT22;7445;50.774;4.944;2023-07-22T08:27:41;20.40;1.00
14709;DHT22;7445;50.774;4.944;2023-07-22T08:30:11;20.30;99.90
14709;DHT22;7445;50.774;4.944;2023-07-22T08:32:36;20.30;1.00
14709;DHT22;7445;50.774;4.944;2023-07-22T08:35:02;20.20;1.00
14709;DHT22;7445;50.774;4.944;2023-07-22T08:37:31;20.20;1.00
14709;DHT22;7445;50.774;4.944;2023-07-22T08:39:57;20.20;1.00
14709;DHT22;7445;50.774;4.944;2023-07-22T08:42:31;20.30;1.00
14709;DHT22;7445;50.774;4.944;2023-07-22T08:45:01;20.40;1.00
14709;DHT22;7445;50.774;4.944;2023-07-22T08:47:29;20.50;1.00
14709;DHT22;7445;50.774;4.944;2023-07-22T08:50:02;20.60;1.00
14709;DHT22;7445;50.774;4.944;2023-07-22T08:52:31;20.70;1.00
14709;DHT22;7445;50.774;4.944;2023-07-22T08:54:57;20.90;1.00
14709;DHT22;7445;50.774;4.944;2023-07-22T08:57:23;20.90;1.00
14709;DHT22;7445;50.774;4.944;2023-07-22T08:59:53;21.00;1.00
14709;DHT22;7445;50.774;4.944;2023-07-22T09:02:29;21.10;1.00
14709;DHT22;7445;50.774;4.944;2023-07-22T09:04:59;21.00;1.00
14709;DHT22;7445;50.774;4.944;2023-07-22T09:07:26;21.10;1.00
14709;DHT22;7445;50.774;4.944;2023-07-22T09:09:53;21.20;1.00
14709;DHT22;7445;50.774;4.944;2023-07-22T09:12:36;21.40;1.00
14709;DHT22;7445;50.774;4.944;2023-07-22T09:15:11;21.40;1.00
14709;DHT22;7445;50.774;4.944;2023-07-22T09:17:46;21.60;1.00
14709;DHT22;7445;50.774;4.944;2023-07-22T09:20:13;21.80;1.00
14709;DHT22;7445;50.774;4.944;2023-07-22T09:22:44;22.00;1.00
14709;DHT22;7445;50.774;4.944;2023-07-22T09:25:16;22.00;1.00
14709;DHT22;7445;50.774;4.944;2023-07-22T09:27:43;22.00;1.00
14709;DHT22;7445;50.774;4.944;2023-07-22T09:32:57;21.90;1.00
14709;DHT22;7445;50.774;4.944;2023-07-22T09:35:30;21.90;1.00
14709;DHT22;7445;50.774;4.944;2023-07-22T09:37:59;22.00;1.00
14709;DHT22;7445;50.774;4.944;2023-07-22T09:40:26;22.40;1.00
14709;DHT22;7445;50.774;4.944;2023-07-22T09:42:57;22.80;1.00
14709;DHT22;7445;50.774;4.944;2023-07-22T09:45:29;23.00;1.00
14709;DHT22;7445;50.774;4.944;2023-07-22T09:47:56;23.00;1.00
14709;DHT22;7445;50.774;4.944;2023-07-22T09:50:24;23.00;1.00
14709;DHT22;7445;50.774;4.944;2023-07-22T09:52:55;23.00;1.00
14709;DHT22;7445;50.774;4.944;2023-07-22T09:55:27;23.20;1.00
14709;DHT22;7445;50.774;4.944;2023-07-22T09:58:04;22.70;1.00
14709;DHT22;7445;50.774;4.944;2023-07-22T10:00:35;22.80;1.00
14709;DHT22;7445;50.774;4.944;2023-07-22T10:03:04;22.90;1.00
14709;DHT22;7445;50.774;4.944;2023-07-22T10:05:35;23.20;44.50
14709;DHT22;7445;50.774;4.944;2023-07-22T10:08:02;23.60;99.90
14709;DHT22;7445;50.774;4.944;2023-07-22T10:10:33;23.70;1.00
14709;DHT22;7445;50.774;4.944;2023-07-22T10:13:00;23.80;1.00
14709;DHT22;7445;50.774;4.944;2023-07-22T10:15:33;23.80;1.00
14709;DHT22;7445;50.774;4.944;2023-07-22T10:18:00;24.20;1.00
14709;DHT22;7445;50.774;4.944;2023-07-22T10:20:28;24.40;99.90
14709;DHT22;7445;50.774;4.944;2023-07-22T10:22:55;24.30;1.00
14709;DHT22;7445;50.774;4.944;2023-07-22T10:25:22;24.00;1.00
14709;DHT22;7445;50.774;4.944;2023-07-22T10:27:49;23.80;99.90
14709;DHT22;7445;50.774;4.944;2023-07-22T10:30:16;23.70;1.00
14709;DHT22;7445;50.774;4.944;2023-07-22T10:32:48;23.60;1.00
14709;DHT22;7445;50.774;4.944;2023-07-22T10:38:12;23.50;1.00
14709;DHT22;7445;50.774;4.944;2023-07-22T10:43:10;23.00;1.00
14709;DHT22;7445;50.774;4.944;2023-07-22T10:45:49;22.90;1.00
14709;DHT22;7445;50.774;4.944;2023-07-22T10:48:16;22.80;1.00
14709;DHT22;7445;50.774;4.944;2023-07-22T10:50:58;22.90;99.90
14709;DHT22;7445;50.774;4.944;2023-07-22T11:06:53;24.90;1.00
14709;DHT22;7445;50.774;4.944;2023-07-22T11:12:22;25.30;1.00
14709;DHT22;7445;50.774;4.944;2023-07-22T11:14:52;25.70;1.00
14709;DHT22;7445;50.774;4.944;2023-07-22T11:17:32;25.70;99.90
14709;DHT22;7445;50.774;4.944;2023-07-22T11:20:02;25.80;99.90
14709;DHT22;7445;50.774;4.944;2023-07-22T11:22:27;26.10;99.90
14709;DHT22;7445;50.774;4.944;2023-07-22T11:24:57;26.60;1.00
14709;DHT22;7445;50.774;4.944;2023-07-22T11:27:25;26.30;99.90
14709;DHT22;7445;50.774;4.944;2023-07-22T11:29:51;26.60;99.90
14709;DHT22;7445;50.774;4.944;2023-07-22T11:32:18;26.40;1.00
14709;DHT22;7445;50.774;4.944;2023-07-22T11:34:46;26.60;99.90
14709;DHT22;7445;50.774;4.944;2023-07-22T11:37:13;26.50;52.10
14709;DHT22;7445;50.774;4.944;2023-07-22T11:39:40;26.40;99.90
14709;DHT22;7445;50.774;4.944;2023-07-22T11:42:08;25.80;99.90
14709;DHT22;7445;50.774;4.944;2023-07-22T11:44:34;25.30;99.90
14709;DHT22;7445;50.774;4.944;2023-07-22T11:47:04;24.90;99.90
14709;DHT22;7445;50.774;4.944;2023-07-22T11:49:40;25.10;99.90
14709;DHT22;7445;50.774;4.944;2023-07-22T11:52:11;25.60;99.90
14709;DHT22;7445;50.774;4.944;2023-07-22T11:54:42;26.10;58.40
14709;DHT22;7445;50.774;4.944;2023-07-22T11:59:44;26.30;1.00
14709;DHT22;7445;50.774;4.944;2023-07-22T12:02:26;26.50;1.00
14709;DHT22;7445;50.774;4.944;2023-07-22T12:05:29;25.80;19.20
14709;DHT22;7445;50.774;4.944;2023-07-22T12:07:56;25.40;8.10
14709;DHT22;7445;50.774;4.944;2023-07-22T12:10:24;24.90;1.00
14709;DHT22;7445;50.774;4.944;2023-07-22T12:12:49;24.40;37.00
14709;DHT22;7445;50.774;4.944;2023-07-22T12:15:22;24.30;51.80
14709;DHT22;7445;50.774;4.944;2023-07-22T12:17:53;24.60;37.60
14709;DHT22;7445;50.774;4.944;2023-07-22T12:20:32;24.90;83.70
14709;DHT22;7445;50.774;4.944;2023-07-22T12:22:58;24.80;21.60
14709;DHT22;7445;50.774;4.944;2023-07-22T12:25:25;25.00;22.00
14709;DHT22;7445;50.774;4.944;2023-07-22T12:27:52;25.40;23.10
14709;DHT22;7445;50.774;4.944;2023-07-22T12:30:21;25.20;28.00
14709;DHT22;7445;50.774;4.944;2023-07-22T12:32:54;24.90;19.30
14709;DHT22;7445;50.774;4.944;2023-07-22T12:35:31;24.70;54.70
14709;DHT22;7445;50.774;4.944;2023-07-22T12:37:56;24.50;76.90
14709;DHT22;7445;50.774;4.944;2023-07-22T12:40:22;24.80;3.60
14709;DHT22;7445;50.774;4.944;2023-07-22T12:42:48;24.70;15.80
14709;DHT22;7445;50.774;4.944;2023-07-22T12:45:16;24.80;15.70
14709;DHT22;7445;50.774;4.944;2023-07-22T12:47:42;24.70;45.00
14709;DHT22;7445;50.774;4.944;2023-07-22T12:50:09;25.00;20.90
14709;DHT22;7445;50.774;4.944;2023-07-22T12:52:40;24.90;34.30
14709;DHT22;7445;50.774;4.944;2023-07-22T12:55:07;25.00;15.50
14709;DHT22;7445;50.774;4.944;2023-07-22T12:57:33;25.00;46.00
14709;DHT22;7445;50.774;4.944;2023-07-22T12:59:59;24.90;60.00
14709;DHT22;7445;50.774;4.944;2023-07-22T13:02:32;24.80;60.00
14709;DHT22;7445;50.774;4.944;2023-07-22T13:04:59;24.70;66.80
14709;DHT22;7445;50.774;4.944;2023-07-22T13:07:24;24.90;22.20
14709;DHT22;7445;50.774;4.944;2023-07-22T13:09:50;25.00;33.60
14709;DHT22;7445;50.774;4.944;2023-07-22T13:12:18;25.00;2.10
14709;DHT22;7445;50.774;4.944;2023-07-22T13:14:45;25.30;37.10
14709;DHT22;7445;50.774;4.944;2023-07-22T13:17:11;25.60;13.20
14709;DHT22;7445;50.774;4.944;2023-07-22T13:19:36;25.60;25.30
14709;DHT22;7445;50.774;4.944;2023-07-22T13:22:02;25.90;15.60
14709;DHT22;7445;50.774;4.944;2023-07-22T13:24:28;26.10;1.00
14709;DHT22;7445;50.774;4.944;2023-07-22T13:26:56;25.90;1.00
14709;DHT22;7445;50.774;4.944;2023-07-22T13:29:22;25.70;17.80
14709;DHT22;7445;50.774;4.944;2023-07-22T13:31:48;25.60;12.10
14709;DHT22;7445;50.774;4.944;2023-07-22T13:34:13;25.80;1.00
14709;DHT22;7445;50.774;4.944;2023-07-22T13:36:40;25.90;1.00
14709;DHT22;7445;50.774;4.944;2023-07-22T13:39:06;26.40;1.00
14709;DHT22;7445;50.774;4.944;2023-07-22T13:41:31;26.80;1.00
14709;DHT22;7445;50.774;4.944;2023-07-22T13:43:57;27.00;1.00
14709;DHT22;7445;50.774;4.944;2023-07-22T13:46:24;26.60;1.00
14709;DHT22;7445;50.774;4.944;2023-07-22T13:48:50;26.70;1.00
14709;DHT22;7445;50.774;4.944;2023-07-22T13:51:15;26.80;1.00
14709;DHT22;7445;50.774;4.944;2023-07-22T13:53:41;27.20;1.00
14709;DHT22;7445;50.774;4.944;2023-07-22T13:56:06;27.40;1.00
14709;DHT22;7445;50.774;4.944;2023-07-22T13:58:32;27.50;1.00
14709;DHT22;7445;50.774;4.944;2023-07-22T14:00:58;27.60;1.00
14709;DHT22;7445;50.774;4.944;2023-07-22T14:03:24;27.30;1.00
14709;DHT22;7445;50.774;4.944;2023-07-22T14:05:49;27.00;1.00
14709;DHT22;7445;50.774;4.944;2023-07-22T14:08:21;26.80;1.00
14709;DHT22;7445;50.774;4.944;2023-07-22T14:10:47;26.70;1.00
14709;DHT22;7445;50.774;4.944;2023-07-22T14:13:13;26.60;1.00
14709;DHT22;7445;50.774;4.944;2023-07-22T14:15:38;26.60;1.00
14709;DHT22;7445;50.774;4.944;2023-07-22T14:18:06;26.40;1.00
14709;DHT22;7445;50.774;4.944;2023-07-22T14:20:36;26.20;1.00
14709;DHT22;7445;50.774;4.944;2023-07-22T14:23:02;26.30;1.00
14709;DHT22;7445;50.774;4.944;2023-07-22T14:25:29;26.40;1.00
14709;DHT22;7445;50.774;4.944;2023-07-22T14:27:55;26.70;1.00
14709;DHT22;7445;50.774;4.944;2023-07-22T14:30:21;26.40;1.00
14709;DHT22;7445;50.774;4.944;2023-07-22T14:32:46;26.40;1.00
14709;DHT22;7445;50.774;4.944;2023-07-22T14:35:12;26.60;1.00
14709;DHT22;7445;50.774;4.944;2023-07-22T14:37:38;26.50;1.00
14709;DHT22;7445;50.774;4.944;2023-07-22T14:40:06;26.60;1.00
14709;DHT22;7445;50.774;4.944;2023-07-22T14:42:34;26.40;1.00
14709;DHT22;7445;50.774;4.944;2023-07-22T14:45:10;25.60;1.00
14709;DHT22;7445;50.774;4.944;2023-07-22T14:47:55;25.30;1.00
14709;DHT22;7445;50.774;4.944;2023-07-22T14:50:21;25.00;1.00
14709;DHT22;7445;50.774;4.944;2023-07-22T14:52:50;24.80;1.00
14709;DHT22;7445;50.774;4.944;2023-07-22T14:55:16;24.50;1.00
14709;DHT22;7445;50.774;4.944;2023-07-22T14:57:48;24.40;1.00
14709;DHT22;7445;50.774;4.944;2023-07-22T15:00:14;24.20;1.00
14709;DHT22;7445;50.774;4.944;2023-07-22T15:02:43;24.20;1.00
14709;DHT22;7445;50.774;4.944;2023-07-22T15:05:09;24.10;1.00
14709;DHT22;7445;50.774;4.944;2023-07-22T15:07:35;24.10;1.00
14709;DHT22;7445;50.774;4.944;2023-07-22T15:10:05;24.40;1.00
14709;DHT22;7445;50.774;4.944;2023-07-22T15:12:33;24.60;1.00
14709;DHT22;7445;50.774;4.944;2023-07-22T15:14:59;25.10;1.00
14709;DHT22;7445;50.774;4.944;2023-07-22T15:17:35;25.30;1.00
14709;DHT22;7445;50.774;4.944;2023-07-22T15:20:01;25.50;1.00
14709;DHT22;7445;50.774;4.944;2023-07-22T15:22:30;25.80;1.00
14709;DHT22;7445;50.774;4.944;2023-07-22T15:24:59;26.10;1.00
14709;DHT22;7445;50.774;4.944;2023-07-22T15:27:25;26.10;1.00
14709;DHT22;7445;50.774;4.944;2023-07-22T15:29:51;26.10;1.00
14709;DHT22;7445;50.774;4.944;2023-07-22T15:32:16;26.40;1.00
14709;DHT22;7445;50.774;4.944;2023-07-22T15:34:44;26.30;1.00
14709;DHT22;7445;50.774;4.944;2023-07-22T15:37:11;26.10;1.00
14709;DHT22;7445;50.774;4.944;2023-07-22T15:39:42;25.70;1.00
14709;DHT22;7445;50.774;4.944;2023-07-22T15:42:16;25.70;1.00
14709;DHT22;7445;50.774;4.944;2023-07-22T15:44:43;25.40;1.00
14709;DHT22;7445;50.774;4.944;2023-07-22T15:47:29;25.20;1.00
14709;DHT22;7445;50.774;4.944;2023-07-22T15:50:01;24.80;1.00
14709;DHT22;7445;50.774;4.944;2023-07-22T15:52:27;24.50;1.00
14709;DHT22;7445;50.774;4.944;2023-07-22T16:12:32;23.30;1.00
14709;DHT22;7445;50.774;4.944;2023-07-22T16:19:28;23.40;1.00
14709;DHT22;7445;50.774;4.944;2023-07-22T16:22:00;23.40;1.00
14709;DHT22;7445;50.774;4.944;2023-07-22T16:24:28;23.60;1.00
14709;DHT22;7445;50.774;4.944;2023-07-22T16:26:59;23.60;1.00
14709;DHT22;7445;50.774;4.944;2023-07-22T16:29:35;23.70;1.00
14709;DHT22;7445;50.774;4.944;2023-07-22T16:32:01;23.70;1.00
14709;DHT22;7445;50.774;4.944;2023-07-22T16:34:27;23.60;1.00
14709;DHT22;7445;50.774;4.944;2023-07-22T16:36:52;23.70;1.00
14709;DHT22;7445;50.774;4.944;2023-07-22T16:39:19;23.50;1.00
14709;DHT22;7445;50.774;4.944;2023-07-22T16:41:46;23.60;1.00
14709;DHT22;7445;50.774;4.944;2023-07-22T16:44:13;23.50;1.00
14709;DHT22;7445;50.774;4.944;2023-07-22T16:46:39;23.60;1.00
14709;DHT22;7445;50.774;4.944;2023-07-22T16:49:05;23.50;1.00
14709;DHT22;7445;50.774;4.944;2023-07-22T16:51:31;23.40;1.00
14709;DHT22;7445;50.774;4.944;2023-07-22T16:53:57;23.40;1.00
14709;DHT22;7445;50.774;4.944;2023-07-22T16:56:22;23.30;1.00
14709;DHT22;7445;50.774;4.944;2023-07-22T16:58:48;23.40;1.00
14709;DHT22;7445;50.774;4.944;2023-07-22T17:01:15;23.40;1.00
14709;DHT22;7445;50.774;4.944;2023-07-22T17:03:41;23.50;1.00
14709;DHT22;7445;50.774;4.944;2023-07-22T17:06:07;23.60;1.00
14709;DHT22;7445;50.774;4.944;2023-07-22T17:08:35;23.70;1.00
14709;DHT22;7445;50.774;4.944;2023-07-22T17:11:12;23.90;1.00
14709;DHT22;7445;50.774;4.944;2023-07-22T17:13:39;23.80;1.00
14709;DHT22;7445;50.774;4.944;2023-07-22T17:16:06;23.80;1.00
14709;DHT22;7445;50.774;4.944;2023-07-22T17:18:35;23.80;1.00
14709;DHT22;7445;50.774;4.944;2023-07-22T17:21:07;23.60;1.00
14709;DHT22;7445;50.774;4.944;2023-07-22T17:26:27;23.10;1.00
14709;DHT22;7445;50.774;4.944;2023-07-22T17:28:52;23.00;1.00
14709;DHT22;7445;50.774;4.944;2023-07-22T17:31:20;22.90;1.00
14709;DHT22;7445;50.774;4.944;2023-07-22T17:33:51;22.80;14.00
14709;DHT22;7445;50.774;4.944;2023-07-22T17:36:17;22.70;55.20
14709;DHT22;7445;50.774;4.944;2023-07-22T17:38:44;22.70;47.50
14709;DHT22;7445;50.774;4.944;2023-07-22T17:41:15;22.50;53.20
14709;DHT22;7445;50.774;4.944;2023-07-22T17:43:41;22.50;34.00
14709;DHT22;7445;50.774;4.944;2023-07-22T17:46:06;22.50;17.10
14709;DHT22;7445;50.774;4.944;2023-07-22T17:48:33;22.50;21.30
14709;DHT22;7445;50.774;4.944;2023-07-22T17:51:02;22.50;11.70
14709;DHT22;7445;50.774;4.944;2023-07-22T17:53:31;22.40;45.90
14709;DHT22;7445;50.774;4.944;2023-07-22T17:55:57;22.40;70.40
14709;DHT22;7445;50.774;4.944;2023-07-22T17:58:23;22.40;65.80
14709;DHT22;7445;50.774;4.944;2023-07-22T18:00:48;22.30;46.00
14709;DHT22;7445;50.774;4.944;2023-07-22T18:03:14;22.30;59.40
14709;DHT22;7445;50.774;4.944;2023-07-22T18:06:12;22.20;53.00
14709;DHT22;7445;50.774;4.944;2023-07-22T18:08:49;22.20;49.90
14709;DHT22;7445;50.774;4.944;2023-07-22T18:11:36;22.20;35.10
14709;DHT22;7445;50.774;4.944;2023-07-22T18:14:28;22.10;70.80
14709;DHT22;7445;50.774;4.944;2023-07-22T18:17:04;22.00;97.10
14709;DHT22;7445;50.774;4.944;2023-07-22T18:19:29;22.00;84.60
14709;DHT22;7445;50.774;4.944;2023-07-22T18:21:55;22.00;99.90
14709;DHT22;7445;50.774;4.944;2023-07-22T18:24:20;22.00;96.70
14709;DHT22;7445;50.774;4.944;2023-07-22T18:26:46;22.00;99.90
14709;DHT22;7445;50.774;4.944;2023-07-22T18:29:12;22.00;99.90
14709;DHT22;7445;50.774;4.944;2023-07-22T18:32:12;22.00;99.90
14709;DHT22;7445;50.774;4.944;2023-07-22T18:34:39;21.90;99.90
14709;DHT22;7445;50.774;4.944;2023-07-22T18:37:08;21.90;99.90
14709;DHT22;7445;50.774;4.944;2023-07-22T18:39:34;21.90;99.90
14709;DHT22;7445;50.774;4.944;2023-07-22T18:42:02;21.90;99.90
14709;DHT22;7445;50.774;4.944;2023-07-22T18:44:30;21.90;99.90
14709;DHT22;7445;50.774;4.944;2023-07-22T18:46:56;21.80;99.90
14709;DHT22;7445;50.774;4.944;2023-07-22T18:49:22;21.80;99.90
14709;DHT22;7445;50.774;4.944;2023-07-22T18:51:48;21.70;99.90
14709;DHT22;7445;50.774;4.944;2023-07-22T18:54:16;21.80;99.90
14709;DHT22;7445;50.774;4.944;2023-07-22T18:56:41;21.70;99.90
14709;DHT22;7445;50.774;4.944;2023-07-22T18:59:07;21.60;99.90
14709;DHT22;7445;50.774;4.944;2023-07-22T19:01:34;21.60;99.90
14709;DHT22;7445;50.774;4.944;2023-07-22T19:04:02;21.50;99.90
14709;DHT22;7445;50.774;4.944;2023-07-22T19:06:27;21.50;99.90
14709;DHT22;7445;50.774;4.944;2023-07-22T19:08:54;21.40;99.90
14709;DHT22;7445;50.774;4.944;2023-07-22T19:11:19;21.40;99.90
14709;DHT22;7445;50.774;4.944;2023-07-22T19:13:48;21.30;99.90
14709;DHT22;7445;50.774;4.944;2023-07-22T19:16:36;21.30;99.90
14709;DHT22;7445;50.774;4.944;2023-07-22T19:21:55;21.20;99.90
14709;DHT22;7445;50.774;4.944;2023-07-22T19:24:23;21.10;99.90
14709;DHT22;7445;50.774;4.944;2023-07-22T19:26:49;21.10;99.90
14709;DHT22;7445;50.774;4.944;2023-07-22T19:32:17;21.00;99.90
14709;DHT22;7445;50.774;4.944;2023-07-22T19:34:46;20.90;99.90
14709;DHT22;7445;50.774;4.944;2023-07-22T19:37:11;20.90;99.90
14709;DHT22;7445;50.774;4.944;2023-07-22T19:39:37;20.90;99.90
14709;DHT22;7445;50.774;4.944;2023-07-22T19:42:05;20.80;99.90
14709;DHT22;7445;50.774;4.944;2023-07-22T19:44:31;20.80;99.90
14709;DHT22;7445;50.774;4.944;2023-07-22T19:46:58;20.70;99.90
14709;DHT22;7445;50.774;4.944;2023-07-22T19:49:28;20.80;1.00
14709;DHT22;7445;50.774;4.944;2023-07-22T19:54:59;20.70;1.00
14709;DHT22;7445;50.774;4.944;2023-07-22T19:57:26;20.70;1.00
14709;DHT22;7445;50.774;4.944;2023-07-22T19:59:51;20.60;1.00
14709;DHT22;7445;50.774;4.944;2023-07-22T20:02:17;20.50;99.90
14709;DHT22;7445;50.774;4.944;2023-07-22T20:04:43;20.50;1.00
14709;DHT22;7445;50.774;4.944;2023-07-22T20:07:09;20.50;1.00
14709;DHT22;7445;50.774;4.944;2023-07-22T20:09:34;20.50;1.00
14709;DHT22;7445;50.774;4.944;2023-07-22T20:12:00;20.40;1.00
14709;DHT22;7445;50.774;4.944;2023-07-22T20:14:26;20.50;1.00
14709;DHT22;7445;50.774;4.944;2023-07-22T20:16:52;20.50;1.00
14709;DHT22;7445;50.774;4.944;2023-07-22T20:19:18;20.50;1.00
14709;DHT22;7445;50.774;4.944;2023-07-22T20:21:44;20.50;1.00
14709;DHT22;7445;50.774;4.944;2023-07-22T20:24:09;20.50;1.00
14709;DHT22;7445;50.774;4.944;2023-07-22T20:26:42;20.40;1.00
14709;DHT22;7445;50.774;4.944;2023-07-22T20:29:09;20.40;1.00
14709;DHT22;7445;50.774;4.944;2023-07-22T20:31:35;20.30;1.00
14709;DHT22;7445;50.774;4.944;2023-07-22T20:34:00;20.30;1.00
14709;DHT22;7445;50.774;4.944;2023-07-22T20:36:28;20.30;1.00
14709;DHT22;7445;50.774;4.944;2023-07-22T20:38:53;20.30;1.00
14709;DHT22;7445;50.774;4.944;2023-07-22T20:41:19;20.30;99.90
14709;DHT22;7445;50.774;4.944;2023-07-22T20:43:45;20.30;1.00
14709;DHT22;7445;50.774;4.944;2023-07-22T20:46:11;20.20;1.00
14709;DHT22;7445;50.774;4.944;2023-07-22T20:48:36;20.10;31.00
14709;DHT22;7445;50.774;4.944;2023-07-22T20:51:02;20.10;1.00
14709;DHT22;7445;50.774;4.944;2023-07-22T20:53:28;20.10;1.00
14709;DHT22;7445;50.774;4.944;2023-07-22T20:55:57;20.00;1.00
14709;DHT22;7445;50.774;4.944;2023-07-22T20:58:24;20.00;1.00
14709;DHT22;7445;50.774;4.944;2023-07-22T21:00:52;19.90;44.60
14709;DHT22;7445;50.774;4.944;2023-07-22T21:03:18;19.80;1.00
14709;DHT22;7445;50.774;4.944;2023-07-22T21:05:51;19.80;1.00
14709;DHT22;7445;50.774;4.944;2023-07-22T21:08:17;19.80;1.00
14709;DHT22;7445;50.774;4.944;2023-07-22T21:10:42;19.70;99.90
14709;DHT22;7445;50.774;4.944;2023-07-22T21:13:08;19.80;99.90
14709;DHT22;7445;50.774;4.944;2023-07-22T21:15:34;19.80;99.90
14709;DHT22;7445;50.774;4.944;2023-07-22T21:18:00;19.70;99.90
14709;DHT22;7445;50.774;4.944;2023-07-22T21:20:27;19.70;1.00
14709;DHT22;7445;50.774;4.944;2023-07-22T21:22:53;19.70;1.00
14709;DHT22;7445;50.774;4.944;2023-07-22T21:25:18;19.60;1.00
14709;DHT22;7445;50.774;4.944;2023-07-22T21:27:44;19.50;82.30
14709;DHT22;7445;50.774;4.944;2023-07-22T21:30:13;19.50;99.90
14709;DHT22;7445;50.774;4.944;2023-07-22T21:32:40;19.40;99.90
14709;DHT22;7445;50.774;4.944;2023-07-22T21:35:06;19.40;1.00
14709;DHT22;7445;50.774;4.944;2023-07-22T21:37:31;19.30;99.90
14709;DHT22;7445;50.774;4.944;2023-07-22T21:39:57;19.30;1.00
14709;DHT22;7445;50.774;4.944;2023-07-22T21:42:23;19.30;1.00
14709;DHT22;7445;50.774;4.944;2023-07-22T21:44:50;19.30;99.90
14709;DHT22;7445;50.774;4.944;2023-07-22T21:47:16;19.30;99.90
14709;DHT22;7445;50.774;4.944;2023-07-22T21:49:42;19.20;99.90
14709;DHT22;7445;50.774;4.944;2023-07-22T21:52:07;19.30;1.00
14709;DHT22;7445;50.774;4.944;2023-07-22T21:54:33;19.30;99.90
14709;DHT22;7445;50.774;4.944;2023-07-22T21:56:59;19.30;1.00
14709;DHT22;7445;50.774;4.944;2023-07-22T21:59:25;19.40;1.00
14709;DHT22;7445;50.774;4.944;2023-07-22T22:01:50;19.40;1.00
14709;DHT22;7445;50.774;4.944;2023-07-22T22:04:16;19.30;1.00
14709;DHT22;7445;50.774;4.944;2023-07-22T22:06:42;19.40;1.00
14709;DHT22;7445;50.774;4.944;2023-07-22T22:09:09;19.40;99.90
14709;DHT22;7445;50.774;4.944;2023-07-22T22:11:37;19.40;1.00
14709;DHT22;7445;50.774;4.944;2023-07-22T22:14:05;19.40;82.90
14709;DHT22;7445;50.774;4.944;2023-07-22T22:16:31;19.40;99.90
14709;DHT22;7445;50.774;4.944;2023-07-22T22:18:56;19.40;99.90
14709;DHT22;7445;50.774;4.944;2023-07-22T22:21:22;19.40;99.90
